createdAt,value
2018-07-17T06:01:53.456Z,32.1
2018-07-17T06:02:43.441Z,32.2
2018-07-17T06:03:33.538Z,32.3
2018-07-17T06:04:23.315Z,32.4
2018-07-17T06:05:13.386Z,32.5
2018-07-17T06:06:03.712Z,32.6
2018-07-17T06:06:53.485Z,32.7
2018-07-17T06:07:43.830Z,32.8
2018-07-17T06:08:33.912Z,32.9
2018-07-17T06:09:24.002Z,33.1
2018-07-17T06:10:14.253Z,33.2
2018-07-17T06:11:04.101Z,33.3
2018-07-17T06:11:54.160Z,33.4
2018-07-17T06:12:44.245Z,33.5
2018-07-17T06:13:34.307Z,33.6
2018-07-17T06:14:24.361Z,33.8
2018-07-17T06:15:14.411Z,33.9
2018-07-17T06:16:04.490Z,34.1
2018-07-17T06:16:54.578Z,34.3
2018-07-17T06:17:44.610Z,34.4
2018-07-17T06:18:34.668Z,34.5
2018-07-17T06:19:24.471Z,34.6
2018-07-17T06:20:14.872Z,34.6
2018-07-17T06:21:04.666Z,34.6
2018-07-17T06:21:54.702Z,34.6
2018-07-17T06:22:44.713Z,34.6
2018-07-17T06:23:34.778Z,34.7
2018-07-17T06:24:24.592Z,34.8
2018-07-17T06:25:15.491Z,34.9
2018-07-17T06:26:05.268Z,35
2018-07-17T06:26:55.318Z,35.1
2018-07-17T06:27:45.395Z,35.2
2018-07-17T06:28:35.438Z,35.3
2018-07-17T06:29:25.541Z,35.3
2018-07-17T06:30:15.284Z,35.4
2018-07-17T06:31:05.663Z,35.3
2018-07-17T06:31:55.689Z,35.2
2018-07-17T06:32:45.765Z,35.1
2018-07-17T06:33:35.892Z,35.1
2018-07-17T06:34:25.918Z,35.1
2018-07-17T06:35:15.982Z,35.2
2018-07-17T06:36:05.762Z,35.3
2018-07-17T06:36:56.096Z,35.4
2018-07-17T06:37:46.151Z,35.5
2018-07-17T06:38:36.247Z,35.7
2018-07-17T06:39:26.017Z,35.9
2018-07-17T06:40:16.340Z,36
2018-07-17T06:41:06.124Z,35.9
2018-07-17T06:41:56.471Z,35.9
2018-07-17T06:42:46.541Z,35.8
2018-07-17T06:43:36.635Z,35.8
2018-07-17T06:44:26.400Z,35.8
2018-07-17T06:45:16.779Z,35.8
2018-07-17T06:46:06.791Z,35.8
2018-07-17T06:46:56.868Z,35.8
2018-07-17T06:47:46.934Z,35.8
2018-07-17T06:48:36.439Z,35.8
2018-07-17T06:49:27.046Z,35.7
2018-07-17T06:50:17.326Z,35.6
2018-07-17T06:51:07.220Z,35.6
2018-07-17T06:51:56.694Z,35.6
2018-07-17T06:52:47.339Z,35.6
2018-07-17T06:53:37.384Z,35.6
2018-07-17T06:54:27.169Z,35.5
2018-07-17T06:55:17.497Z,35.4
2018-07-17T06:56:07.564Z,35.4
2018-07-17T06:56:57.649Z,35.4
2018-07-17T06:57:47.700Z,35.4
2018-07-17T06:58:37.489Z,35.3
2018-07-17T06:59:27.553Z,35.3
2018-07-17T07:00:17.892Z,35.3
2018-07-17T07:01:07.953Z,35.3
2018-07-17T07:01:58.031Z,35.3
2018-07-17T07:02:48.093Z,35.3
2018-07-17T07:03:38.138Z,35.3
2018-07-17T07:04:27.946Z,35.3
2018-07-17T07:05:18.112Z,35.4
2018-07-17T07:06:08.345Z,35.4
2018-07-17T07:06:58.151Z,35.5
2018-07-17T07:07:48.472Z,35.6
2018-07-17T07:08:38.416Z,35.6
2018-07-17T07:09:28.624Z,35.7
2018-07-17T07:10:18.680Z,35.7
2018-07-17T07:11:08.956Z,35.8
2018-07-17T07:11:58.789Z,35.8
2018-07-17T07:12:48.322Z,35.8
2018-07-17T07:13:38.916Z,35.8
2018-07-17T07:14:28.985Z,35.8
2018-07-17T07:15:19.042Z,35.7
2018-07-17T07:16:09.133Z,35.7
2018-07-17T07:16:58.635Z,35.6
2018-07-17T07:17:48.973Z,35.6
2018-07-17T07:18:38.733Z,35.6
2018-07-17T07:19:29.368Z,35.5
2018-07-17T07:20:19.451Z,35.5
2018-07-17T07:21:09.502Z,35.4
2018-07-17T07:21:59.602Z,35.4
2018-07-17T07:22:49.636Z,35.4
2018-07-17T07:23:39.701Z,35.4
2018-07-17T07:24:29.757Z,35.4
2018-07-17T07:25:19.584Z,35.5
2018-07-17T07:26:09.893Z,35.5
2018-07-17T07:26:59.948Z,35.5
2018-07-17T07:27:50.034Z,35.4
2018-07-17T07:28:40.118Z,35.4
2018-07-17T07:29:30.148Z,35.4
2018-07-17T07:30:19.918Z,35.4
2018-07-17T07:31:10.016Z,35.4
2018-07-17T07:32:00.345Z,35.4
2018-07-17T07:32:50.137Z,35.4
2018-07-17T07:33:40.472Z,35.3
2018-07-17T07:34:30.542Z,35.3
2018-07-17T07:35:20.604Z,35.1
2018-07-17T07:36:10.687Z,35.1
2018-07-17T07:37:00.718Z,35.1
2018-07-17T07:37:50.782Z,35
2018-07-17T07:38:40.271Z,34.9
2018-07-17T07:39:30.651Z,34.9
2018-07-17T07:40:20.984Z,34.9
2018-07-17T07:41:11.030Z,34.8
2018-07-17T07:42:01.099Z,34.8
2018-07-17T07:42:51.474Z,34.7
2018-07-17T07:43:41.231Z,34.6
2018-07-17T07:44:31.292Z,34.6
2018-07-17T07:45:21.387Z,34.6
2018-07-17T07:46:11.430Z,34.5
2018-07-17T07:47:01.207Z,34.1
2018-07-17T07:47:51.590Z,33.9
2018-07-17T07:48:41.316Z,33.7
2018-07-17T07:49:31.666Z,33.6
2018-07-17T07:50:21.451Z,33.6
2018-07-17T07:51:11.531Z,33.6
2018-07-17T07:52:01.868Z,33.5
2018-07-17T07:52:51.655Z,33.4
2018-07-17T07:53:42.001Z,33.4
2018-07-17T07:54:32.073Z,33.3
2018-07-17T07:55:21.843Z,33.3
2018-07-17T07:56:12.175Z,33.2
2018-07-17T07:57:01.985Z,33.1
2018-07-17T07:57:52.320Z,33.1
2018-07-17T07:58:42.110Z,33
2018-07-17T07:59:32.442Z,32.9
2018-07-17T08:00:22.224Z,32.9
2018-07-17T08:01:12.024Z,32.9
2018-07-17T08:02:02.636Z,32.8
2018-07-17T08:02:52.711Z,32.8
2018-07-17T08:03:43.291Z,32.7
2018-07-17T08:04:32.269Z,32.6
2018-07-17T08:05:22.318Z,32.6
2018-07-17T08:06:13.012Z,32.6
2018-07-17T08:07:03.018Z,32.6
2018-07-17T08:07:53.078Z,32.4
2018-07-17T08:08:43.164Z,32.4
2018-07-17T08:09:32.959Z,32.3
2018-07-17T08:10:23.274Z,32.1
2018-07-17T08:11:13.345Z,32
2018-07-17T08:12:03.515Z,31.8
2018-07-17T08:12:53.478Z,31.7
2018-07-17T08:13:43.537Z,31.6
2018-07-17T08:14:33.326Z,31.3
2018-07-17T08:15:23.657Z,31.1
2018-07-17T08:16:13.739Z,30.9
2018-07-17T08:17:03.795Z,30.7
2018-07-17T08:17:53.866Z,30.5
2018-07-17T08:18:43.629Z,30.3
2018-07-17T08:19:33.975Z,30.1
2018-07-17T08:20:24.063Z,29.9
2018-07-17T08:21:13.828Z,29.7
2018-07-17T08:22:04.172Z,29.5
2018-07-17T08:22:53.970Z,29.3
2018-07-17T08:23:44.030Z,29.1
2018-07-17T08:24:34.376Z,28.9
2018-07-17T08:25:24.433Z,28.8
2018-07-17T08:26:14.497Z,28.6
2018-07-17T08:27:04.604Z,28.4
2018-07-17T08:27:54.608Z,28.3
2018-07-17T08:28:44.418Z,28.1
2018-07-17T08:29:34.821Z,27.9
2018-07-17T08:30:24.807Z,27.8
2018-07-17T08:31:14.912Z,27.6
2018-07-17T08:32:04.928Z,27.4
2018-07-17T08:32:55.018Z,27.3
2018-07-17T08:33:45.070Z,27.1
2018-07-17T08:34:35.150Z,27
2018-07-17T08:35:25.209Z,26.9
2018-07-17T08:36:14.718Z,26.8
2018-07-17T08:37:05.324Z,26.6
2018-07-17T08:37:55.398Z,26.5
2018-07-17T08:38:45.453Z,26.4
2018-07-17T08:39:35.518Z,26.3
2018-07-17T08:40:25.592Z,26.2
2018-07-17T08:41:15.708Z,26.1
2018-07-17T08:42:05.429Z,26.1
2018-07-17T08:42:55.801Z,25.9
2018-07-17T08:43:46.333Z,25.9
2018-07-17T08:44:35.926Z,25.8
2018-07-17T08:45:25.988Z,25.7
2018-07-17T08:46:15.773Z,25.6
2018-07-17T08:47:06.104Z,25.6
2018-07-17T08:47:55.898Z,25.6
2018-07-17T08:48:46.249Z,25.5
2018-07-17T08:49:36.297Z,25.4
2018-07-17T08:50:26.357Z,25.4
2018-07-17T08:51:16.418Z,25.3
2018-07-17T08:52:06.210Z,25.3
2018-07-17T08:52:56.536Z,25.3
2018-07-17T08:53:46.617Z,25.2
2018-07-17T08:54:37.281Z,25.1
2018-07-17T08:55:26.742Z,25.1
2018-07-17T08:56:16.812Z,25.1
2018-07-17T08:57:06.887Z,25.1
2018-07-17T08:57:56.967Z,25.1
2018-07-17T08:58:46.708Z,25.1
2018-07-17T08:59:36.786Z,25
2018-07-17T09:00:27.380Z,25.1
2018-07-17T09:01:16.919Z,25.1
2018-07-17T09:02:06.988Z,25.2
2018-07-17T09:02:57.047Z,25.3
2018-07-17T09:03:47.102Z,25.4
2018-07-17T09:04:37.458Z,25.6
2018-07-17T09:05:27.516Z,25.8
2018-07-17T09:06:17.569Z,25.9
2018-07-17T09:07:07.374Z,26.2
2018-07-17T09:07:57.701Z,26.5
2018-07-17T09:08:47.773Z,26.9
2018-07-17T09:09:37.838Z,27.3
2018-07-17T09:10:27.904Z,27.8
2018-07-17T09:11:17.961Z,28.3
2018-07-17T09:12:08.075Z,28.9
2018-07-17T09:12:57.860Z,29.5
2018-07-17T09:13:47.884Z,30.1
2018-07-17T09:14:38.226Z,30.7
2018-07-17T09:15:28.106Z,31.3
2018-07-17T09:16:18.084Z,27.8
2018-07-17T09:17:08.128Z,29
2018-07-17T09:17:58.475Z,31.3
2018-07-17T09:18:48.555Z,31.8
2018-07-17T09:19:38.597Z,34.9
2018-07-17T09:20:28.391Z,35.9
2018-07-17T09:21:18.749Z,35.6
2018-07-17T09:22:08.807Z,34.9
2018-07-17T09:22:58.864Z,34.4
2018-07-17T09:23:48.932Z,34.3
2018-07-17T09:24:38.160Z,34.6
2018-07-17T09:25:28.777Z,35
2018-07-17T09:26:19.118Z,35.4
2018-07-17T09:27:09.173Z,35.5
2018-07-17T09:27:59.241Z,35.6
2018-07-17T09:28:48.754Z,35.6
2018-07-17T09:29:39.095Z,35.7
2018-07-17T09:30:29.442Z,35.8
2018-07-17T09:31:19.523Z,36
2018-07-17T09:32:09.563Z,36.1
2018-07-17T09:32:59.646Z,36.2
2018-07-17T09:33:49.708Z,36.3
2018-07-17T09:34:39.759Z,36.5
2018-07-17T09:35:29.825Z,36.6
2018-07-17T09:36:19.326Z,36.8
2018-07-17T09:37:09.669Z,36.9
2018-07-17T09:38:00.018Z,37.1
2018-07-17T09:38:50.236Z,37.2
2018-07-17T09:39:40.150Z,37.4
2018-07-17T09:40:30.225Z,37.6
2018-07-17T09:41:20.275Z,37.9
2018-07-17T09:42:10.349Z,38.1
2018-07-17T09:43:00.396Z,38.3
2018-07-17T09:43:50.480Z,38.4
2018-07-17T09:44:40.550Z,38.7
2018-07-17T09:45:30.600Z,38.9
2018-07-17T09:46:20.665Z,39.3
2018-07-17T09:47:10.786Z,39.5
2018-07-17T09:48:00.514Z,39.8
2018-07-17T09:48:50.882Z,40.1
2018-07-17T09:49:40.925Z,40.4
2018-07-17T09:50:30.713Z,40.6
2018-07-17T09:51:21.107Z,40.9
2018-07-17T09:52:11.139Z,41.2
2018-07-17T09:53:01.189Z,41.4
2018-07-17T09:53:51.246Z,41.6
2018-07-17T09:54:41.031Z,41.8
2018-07-17T09:55:31.103Z,42
2018-07-17T09:56:21.155Z,42.3
2018-07-17T09:57:11.504Z,42.5
2018-07-17T09:58:01.587Z,42.7
2018-07-17T09:58:51.365Z,42.9
2018-07-17T09:59:41.422Z,43.2
2018-07-17T10:00:31.770Z,43.4
2018-07-17T10:01:21.563Z,43.6
2018-07-17T10:02:11.912Z,43.8
2018-07-17T10:03:01.963Z,43.9
2018-07-17T10:03:52.030Z,44.1
2018-07-17T10:04:42.259Z,44.1
2018-07-17T10:05:32.145Z,44.2
2018-07-17T10:06:21.977Z,44.2
2018-07-17T10:07:12.315Z,44.1
2018-07-17T10:08:02.345Z,43.9
2018-07-17T10:08:52.402Z,43.8
2018-07-17T10:09:42.493Z,43.8
2018-07-17T10:10:32.532Z,43.8
2018-07-17T10:11:22.589Z,43.9
2018-07-17T10:12:12.671Z,43.9
2018-07-17T10:13:02.735Z,43.9
2018-07-17T10:13:52.520Z,43.8
2018-07-17T10:14:42.598Z,43.7
2018-07-17T10:15:32.940Z,43.6
2018-07-17T10:16:22.983Z,43.4
2018-07-17T10:17:13.060Z,43.4
2018-07-17T10:18:03.135Z,43.3
2018-07-17T10:18:53.181Z,43.3
2018-07-17T10:19:42.957Z,43.2
2018-07-17T10:20:33.318Z,43.1
2018-07-17T10:21:23.394Z,43.1
2018-07-17T10:22:13.445Z,43.1
2018-07-17T10:23:03.512Z,43.1
2018-07-17T10:23:53.552Z,43.1
2018-07-17T10:24:43.639Z,43.1
2018-07-17T10:25:33.707Z,43.1
2018-07-17T10:26:23.996Z,43.1
2018-07-17T10:27:13.825Z,43.1
2018-07-17T10:28:03.615Z,43.2
2018-07-17T10:28:53.955Z,43.3
2018-07-17T10:29:44.011Z,43.4
2018-07-17T10:30:34.070Z,43.6
2018-07-17T10:31:24.209Z,43.8
2018-07-17T10:32:14.677Z,44.1
2018-07-17T10:33:04.268Z,44.1
2018-07-17T10:33:54.325Z,44.3
2018-07-17T10:34:44.435Z,44.3
2018-07-17T10:35:34.448Z,44.4
2018-07-17T10:36:24.518Z,44.5
2018-07-17T10:37:14.596Z,44.6
2018-07-17T10:38:04.657Z,44.6
2018-07-17T10:38:54.726Z,44.5
2018-07-17T10:39:44.776Z,44.5
2018-07-17T10:40:34.853Z,44.6
2018-07-17T10:41:24.645Z,44.7
2018-07-17T10:42:14.993Z,44.8
2018-07-17T10:43:05.056Z,44.8
2018-07-17T10:43:55.101Z,44.8
2018-07-17T10:44:45.180Z,44.8
2018-07-17T10:45:34.963Z,44.8
2018-07-17T10:46:25.315Z,44.9
2018-07-17T10:47:15.375Z,45.2
2018-07-17T10:48:05.425Z,45.6
2018-07-17T10:48:55.485Z,46
2018-07-17T10:49:45.561Z,46.3
2018-07-17T10:50:35.620Z,46.4
2018-07-17T10:51:25.688Z,46.5
2018-07-17T10:52:15.748Z,46.7
2018-07-17T10:53:05.551Z,46.8
2018-07-17T10:53:55.881Z,46.8
2018-07-17T10:54:45.958Z,46.8
2018-07-17T10:55:35.730Z,46.8
2018-07-17T10:56:26.094Z,46.9
2018-07-17T10:57:16.145Z,47
2018-07-17T10:58:06.196Z,47.1
2018-07-17T10:58:56.286Z,47.1
2018-07-17T10:59:46.326Z,47.1
2018-07-17T11:00:36.383Z,47.2
2018-07-17T11:01:26.194Z,47.4
2018-07-17T11:02:16.518Z,47.6
2018-07-17T11:03:06.602Z,47.8
2018-07-17T11:03:56.647Z,47.9
2018-07-17T11:04:46.728Z,47.9
2018-07-17T11:05:36.797Z,47.9
2018-07-17T11:06:26.833Z,48.1
2018-07-17T11:07:16.911Z,48.2
2018-07-17T11:08:06.966Z,48.3
2018-07-17T11:08:57.028Z,48.4
2018-07-17T11:09:46.823Z,48.6
2018-07-17T11:10:37.167Z,48.8
2018-07-17T11:11:26.663Z,49.1
2018-07-17T11:12:17.286Z,49.3
2018-07-17T11:13:07.346Z,49.5
2018-07-17T11:13:57.155Z,49.7
2018-07-17T11:14:47.503Z,49.8
2018-07-17T11:15:37.546Z,49.9
2018-07-17T11:16:27.336Z,50
2018-07-17T11:17:17.675Z,50.2
2018-07-17T11:18:07.753Z,50.2
2018-07-17T11:18:57.835Z,50.2
2018-07-17T11:19:47.908Z,50.3
2018-07-17T11:20:37.936Z,50.3
2018-07-17T11:21:27.998Z,50.2
2018-07-17T11:22:18.070Z,50
2018-07-17T11:23:08.147Z,50
2018-07-17T11:23:57.932Z,50.1
2018-07-17T11:24:48.268Z,50.1
2018-07-17T11:25:38.067Z,50
2018-07-17T11:26:28.399Z,50
2018-07-17T11:27:18.455Z,49.9
2018-07-17T11:28:08.533Z,49.9
2018-07-17T11:28:58.595Z,50
2018-07-17T11:29:48.681Z,50.1
2018-07-17T11:30:38.726Z,50.1
2018-07-17T11:31:28.500Z,50.1
2018-07-17T11:32:18.582Z,50.2
2018-07-17T11:33:08.648Z,50.3
2018-07-17T11:33:58.973Z,50.3
2018-07-17T11:34:49.042Z,50.3
2018-07-17T11:35:39.097Z,50.3
2018-07-17T11:36:29.172Z,50.3
2018-07-17T11:37:19.237Z,50.6
2018-07-17T11:38:09.022Z,50.8
2018-07-17T11:38:59.359Z,50.9
2018-07-17T11:39:49.425Z,51
2018-07-17T11:40:39.541Z,50.9
2018-07-17T11:41:29.283Z,51
2018-07-17T11:42:19.618Z,51.1
2018-07-17T11:43:09.704Z,51.1
2018-07-17T11:43:59.764Z,51.1
2018-07-17T11:44:49.809Z,51
2018-07-17T11:45:39.892Z,50.9
2018-07-17T11:46:29.946Z,50.9
2018-07-17T11:47:19.724Z,50.9
2018-07-17T11:48:10.067Z,50.9
2018-07-17T11:49:00.129Z,51
2018-07-17T11:49:49.934Z,51
2018-07-17T11:50:40.339Z,50.9
2018-07-17T11:51:30.332Z,50.8
2018-07-17T11:52:20.122Z,50.8
2018-07-17T11:53:10.551Z,50.8
2018-07-17T11:54:00.266Z,50.8
2018-07-17T11:54:50.599Z,50.7
2018-07-17T11:55:40.109Z,50.7
2018-07-17T11:56:30.739Z,50.7
2018-07-17T11:57:20.513Z,50.6
2018-07-17T11:58:10.284Z,50.7
2018-07-17T11:59:01.443Z,50.7
2018-07-17T11:59:50.706Z,50.8
2018-07-17T12:00:40.772Z,50.8
2018-07-17T12:01:31.135Z,50.9
2018-07-17T12:02:21.166Z,50.9
2018-07-17T12:03:11.253Z,50.9
2018-07-17T12:04:01.029Z,50.9
2018-07-17T12:04:51.364Z,50.8
2018-07-17T12:05:41.279Z,50.8
2018-07-17T12:06:31.487Z,50.7
2018-07-17T12:07:21.553Z,50.6
2018-07-17T12:08:11.634Z,50.5
2018-07-17T12:09:01.692Z,50.4
2018-07-17T12:09:51.211Z,50.3
2018-07-17T12:10:41.824Z,50.2
2018-07-17T12:11:31.871Z,50.1
2018-07-17T12:12:22.081Z,50
2018-07-17T12:13:12.001Z,49.9
2018-07-17T12:14:02.074Z,49.8
2018-07-17T12:14:52.138Z,49.7
2018-07-17T12:15:42.205Z,49.6
2018-07-17T12:16:31.977Z,49.6
2018-07-17T12:17:22.324Z,49.6
2018-07-17T12:18:12.393Z,49.5
2018-07-17T12:19:02.474Z,49.4
2018-07-17T12:19:52.659Z,49.4
2018-07-17T12:20:42.320Z,49.4
2018-07-17T12:21:32.369Z,49.4
2018-07-17T12:22:22.741Z,49.3
2018-07-17T12:23:12.786Z,49.3
2018-07-17T12:24:02.855Z,49.3
2018-07-17T12:24:52.935Z,49.3
2018-07-17T12:25:42.969Z,49.3
2018-07-17T12:26:33.035Z,49.3
2018-07-17T12:27:22.843Z,49.3
2018-07-17T12:28:13.182Z,49.3
2018-07-17T12:29:03.244Z,49.2
2018-07-17T12:29:53.324Z,49.1
2018-07-17T12:30:43.368Z,49.1
2018-07-17T12:31:33.431Z,49
2018-07-17T12:32:23.213Z,49
2018-07-17T12:33:13.562Z,48.9
2018-07-17T12:34:03.651Z,48.8
2018-07-17T12:34:53.717Z,48.8
2018-07-17T12:35:43.765Z,48.7
2018-07-17T12:36:33.819Z,48.6
2018-07-17T12:37:23.929Z,48.6
2018-07-17T12:38:13.960Z,48.5
2018-07-17T12:39:04.021Z,48.4
2018-07-17T12:39:53.813Z,48.3
2018-07-17T12:40:43.581Z,48.3
2018-07-17T12:41:34.207Z,48.2
2018-07-17T12:42:24.286Z,48.1
2018-07-17T12:43:14.072Z,48.1
2018-07-17T12:44:04.125Z,48
2018-07-17T12:44:54.209Z,47.9
2018-07-17T12:45:44.250Z,47.9
2018-07-17T12:46:34.612Z,47.8
2018-07-17T12:47:24.389Z,47.7
2018-07-17T12:48:14.733Z,47.6
2018-07-17T12:49:04.523Z,47.6
2018-07-17T12:49:54.676Z,47.6
2018-07-17T12:50:44.925Z,47.4
2018-07-17T12:51:34.984Z,47.4
2018-07-17T12:52:25.041Z,47.3
2018-07-17T12:53:15.116Z,47.3
2018-07-17T12:54:05.179Z,47.2
2018-07-17T12:54:54.968Z,47.1
2018-07-17T12:55:45.322Z,47.1
2018-07-17T12:56:35.373Z,47.1
2018-07-17T12:57:25.453Z,47
2018-07-17T12:58:15.517Z,47
2018-07-17T12:59:05.569Z,47.1
2018-07-17T12:59:55.083Z,47.1
2018-07-17T13:00:45.744Z,47.1
2018-07-17T13:01:35.808Z,47.1
2018-07-17T13:02:25.562Z,47
2018-07-17T13:03:15.892Z,47
2018-07-17T13:04:05.690Z,46.9
2018-07-17T13:04:56.035Z,46.9
2018-07-17T13:05:45.807Z,46.9
2018-07-17T13:06:35.877Z,46.8
2018-07-17T13:07:26.256Z,46.8
2018-07-17T13:08:16.000Z,46.7
2018-07-17T13:09:06.083Z,46.6
2018-07-17T13:09:56.436Z,46.6
2018-07-17T13:10:46.483Z,46.5
2018-07-17T13:11:36.253Z,46.4
2018-07-17T13:12:26.626Z,46.3
2018-07-17T13:13:16.685Z,46.3
2018-07-17T13:14:06.736Z,46.3
2018-07-17T13:14:56.811Z,46.2
2018-07-17T13:15:46.873Z,46.2
2018-07-17T13:16:36.924Z,46.2
2018-07-17T13:17:27.095Z,46.1
2018-07-17T13:18:17.077Z,46.1
2018-07-17T13:19:07.116Z,46.1
2018-07-17T13:19:57.190Z,46.1
2018-07-17T13:20:47.246Z,46.1
2018-07-17T13:21:37.305Z,46.1
2018-07-17T13:22:27.111Z,46.1
2018-07-17T13:23:17.432Z,46.1
2018-07-17T13:24:07.229Z,46.1
2018-07-17T13:24:57.568Z,46.1
2018-07-17T13:25:47.641Z,46.1
2018-07-17T13:26:37.699Z,46.1
2018-07-17T13:27:27.758Z,46.1
2018-07-17T13:28:17.538Z,46.1
2018-07-17T13:29:07.898Z,46.1
2018-07-17T13:29:57.960Z,46.2
2018-07-17T13:30:48.044Z,46.2
2018-07-17T13:31:38.102Z,46.3
2018-07-17T13:32:28.152Z,46.4
2018-07-17T13:33:17.949Z,46.6
2018-07-17T13:34:08.284Z,46.8
2018-07-17T13:34:58.363Z,46.8
2018-07-17T13:35:48.410Z,46.7
2018-07-17T13:36:38.490Z,46.6
2018-07-17T13:37:28.541Z,46.6
2018-07-17T13:38:18.654Z,46.6
2018-07-17T13:39:08.742Z,46.6
2018-07-17T13:39:58.745Z,46.6
2018-07-17T13:40:48.817Z,46.6
2018-07-17T13:41:38.869Z,46.5
2018-07-17T13:42:28.661Z,46.5
2018-07-17T13:43:19.015Z,46.4
2018-07-17T13:44:08.800Z,46.5
2018-07-17T13:44:58.855Z,46.6
2018-07-17T13:45:49.185Z,46.7
2018-07-17T13:46:39.260Z,46.6
2018-07-17T13:47:29.324Z,46.5
2018-07-17T13:48:19.383Z,46.4
2018-07-17T13:49:09.452Z,46.4
2018-07-17T13:49:59.613Z,46.4
2018-07-17T13:50:49.610Z,46.4
2018-07-17T13:51:39.645Z,46.4
2018-07-17T13:52:29.423Z,46.4
2018-07-17T13:53:19.777Z,46.4
2018-07-17T13:54:09.834Z,46.3
2018-07-17T13:54:59.912Z,46.2
2018-07-17T13:55:49.989Z,46.2
2018-07-17T13:56:40.042Z,46.1
2018-07-17T13:57:30.115Z,46.1
2018-07-17T13:58:19.875Z,46.1
2018-07-17T13:59:10.274Z,46.2
2018-07-17T14:00:00.408Z,46.2
2018-07-17T14:00:50.373Z,46.2
2018-07-17T14:01:40.410Z,46.1
2018-07-17T14:02:30.585Z,46.1
2018-07-17T14:03:20.270Z,46.1
2018-07-17T14:04:10.625Z,46.3
2018-07-17T14:05:00.692Z,46.4
2018-07-17T14:05:50.757Z,46.6
2018-07-17T14:06:40.533Z,46.7
2018-07-17T14:07:30.876Z,46.6
2018-07-17T14:08:20.930Z,46.6
2018-07-17T14:09:10.711Z,46.5
2018-07-17T14:10:00.787Z,46.4
2018-07-17T14:10:51.125Z,46.4
2018-07-17T14:11:40.633Z,46.3
2018-07-17T14:12:30.992Z,46.3
2018-07-17T14:13:21.379Z,46.2
2018-07-17T14:14:11.410Z,46.1
2018-07-17T14:15:01.525Z,46.1
2018-07-17T14:15:51.513Z,46.1
2018-07-17T14:16:41.042Z,46.1
2018-07-17T14:17:32.025Z,46.1
2018-07-17T14:18:21.478Z,46.1
2018-07-17T14:19:11.785Z,46.1
2018-07-17T14:20:01.838Z,46
2018-07-17T14:20:51.639Z,46
2018-07-17T14:21:41.968Z,45.9
2018-07-17T14:22:31.779Z,45.9
2018-07-17T14:23:21.831Z,45.9
2018-07-17T14:24:12.165Z,45.8
2018-07-17T14:25:02.253Z,45.8
2018-07-17T14:25:52.290Z,45.6
2018-07-17T14:26:42.085Z,45.6
2018-07-17T14:27:32.418Z,45.6
2018-07-17T14:28:22.506Z,45.5
2018-07-17T14:29:12.545Z,45.4
2018-07-17T14:30:02.354Z,45.4
2018-07-17T14:30:52.408Z,45.3
2018-07-17T14:31:42.801Z,45.3
2018-07-17T14:32:32.856Z,45.3
2018-07-17T14:33:22.884Z,45.2
2018-07-17T14:34:12.926Z,45.1
2018-07-17T14:35:02.996Z,45.1
2018-07-17T14:35:53.094Z,45
2018-07-17T14:36:43.131Z,44.9
2018-07-17T14:37:33.196Z,44.9
2018-07-17T14:38:22.976Z,44.8
2018-07-17T14:39:13.320Z,44.8
2018-07-17T14:40:03.390Z,44.8
2018-07-17T14:40:53.170Z,44.7
2018-07-17T14:41:43.801Z,44.7
2018-07-17T14:42:33.316Z,44.6
2018-07-17T14:43:23.637Z,44.6
2018-07-17T14:44:13.443Z,44.6
2018-07-17T14:45:03.485Z,44.6
2018-07-17T14:45:53.852Z,44.6
2018-07-17T14:46:43.614Z,44.6
2018-07-17T14:47:33.960Z,44.5
2018-07-17T14:48:24.426Z,44.5
2018-07-17T14:49:14.149Z,44.5
2018-07-17T14:50:04.152Z,44.4
2018-07-17T14:50:54.227Z,44.4
2018-07-17T14:51:44.300Z,44.4
2018-07-17T14:52:34.357Z,44.4
2018-07-17T14:53:24.447Z,44.4
2018-07-17T14:54:14.552Z,44.4
2018-07-17T14:55:04.561Z,44.4
2018-07-17T14:55:54.341Z,44.4
2018-07-17T14:56:44.663Z,44.4
2018-07-17T14:57:34.739Z,44.4
2018-07-17T14:58:24.811Z,44.4
2018-07-17T14:59:14.861Z,44.4
2018-07-17T15:00:04.814Z,44.4
2018-07-17T15:00:54.996Z,44.3
2018-07-17T15:01:45.062Z,44.3
2018-07-17T15:02:35.201Z,44.3
2018-07-17T15:03:25.193Z,44.3
2018-07-17T15:04:15.256Z,44.2
2018-07-17T15:05:05.331Z,44.2
2018-07-17T15:05:55.388Z,44.1
2018-07-17T15:06:45.456Z,44.1
2018-07-17T15:07:35.233Z,44.1
2018-07-17T15:08:25.408Z,44
2018-07-17T15:09:15.650Z,43.9
2018-07-17T15:10:05.723Z,43.9
2018-07-17T15:10:55.776Z,43.9
2018-07-17T15:11:45.843Z,43.9
2018-07-17T15:12:35.973Z,43.9
2018-07-17T15:13:25.965Z,43.8
2018-07-17T15:14:16.032Z,43.8
2018-07-17T15:15:05.830Z,43.8
2018-07-17T15:15:55.640Z,43.7
2018-07-17T15:16:46.236Z,43.7
2018-07-17T15:17:36.292Z,43.6
2018-07-17T15:18:26.358Z,43.6
2018-07-17T15:19:16.435Z,43.5
2018-07-17T15:20:06.486Z,43.5
2018-07-17T15:20:56.563Z,43.4
2018-07-17T15:21:46.683Z,43.4
2018-07-17T15:22:36.687Z,43.4
2018-07-17T15:23:26.470Z,43.3
2018-07-17T15:24:16.840Z,43.3
2018-07-17T15:25:06.868Z,43.3
2018-07-17T15:25:56.667Z,43.3
2018-07-17T15:26:47.006Z,43.3
2018-07-17T15:27:36.800Z,43.2
2018-07-17T15:28:26.862Z,43.2
2018-07-17T15:29:17.237Z,43.1
2018-07-17T15:30:07.253Z,43.1
2018-07-17T15:30:57.042Z,43
2018-07-17T15:31:47.091Z,42.9
2018-07-17T15:32:37.445Z,42.9
2018-07-17T15:33:27.502Z,42.9
2018-07-17T15:34:17.573Z,42.8
2018-07-17T15:35:07.871Z,42.8
2018-07-17T15:35:57.700Z,42.8
2018-07-17T15:36:47.764Z,42.7
2018-07-17T15:37:37.285Z,42.6
2018-07-17T15:38:28.083Z,42.6
2018-07-17T15:39:17.959Z,42.6
2018-07-17T15:40:08.019Z,42.6
2018-07-17T15:40:58.106Z,42.5
2018-07-17T15:41:47.871Z,42.5
2018-07-17T15:42:38.233Z,42.5
2018-07-17T15:43:28.282Z,42.4
2018-07-17T15:44:18.348Z,42.4
2018-07-17T15:45:08.414Z,42.4
2018-07-17T15:45:58.229Z,42.3
2018-07-17T15:46:48.542Z,42.3
2018-07-17T15:47:38.621Z,42.3
2018-07-17T15:48:28.691Z,42.2
2018-07-17T15:49:18.738Z,42.2
2018-07-17T15:50:08.799Z,42.1
2018-07-17T15:50:58.861Z,42.1
2018-07-17T15:51:48.926Z,42
2018-07-17T15:52:38.718Z,41.9
2018-07-17T15:53:29.061Z,41.9
2018-07-17T15:54:19.126Z,41.9
2018-07-17T15:55:08.921Z,41.8
2018-07-17T15:55:58.705Z,41.8
2018-07-17T15:56:49.318Z,41.7
2018-07-17T15:57:39.427Z,41.7
2018-07-17T15:58:29.442Z,41.6
2018-07-17T15:59:19.518Z,41.4
2018-07-17T16:00:09.570Z,41.3
2018-07-17T16:00:59.649Z,41.1
2018-07-17T16:01:49.427Z,40.9
2018-07-17T16:02:39.765Z,40.6
2018-07-17T16:03:29.822Z,40.4
2018-07-17T16:04:19.887Z,40.1
2018-07-17T16:05:09.982Z,39.9
2018-07-17T16:06:00.026Z,39.7
2018-07-17T16:06:50.075Z,39.4
2018-07-17T16:07:40.163Z,39.2
2018-07-17T16:08:30.205Z,38.9
2018-07-17T16:09:20.271Z,38.8
2018-07-17T16:10:10.587Z,38.5
2018-07-17T16:11:00.397Z,38.3
2018-07-17T16:11:50.463Z,38.1
2018-07-17T16:12:40.529Z,37.9
2018-07-17T16:13:31.403Z,37.6
2018-07-17T16:14:23.231Z,37.4
2018-07-17T16:15:10.718Z,37.2
2018-07-17T16:16:00.781Z,37.1
2018-07-17T16:16:50.849Z,36.9
2018-07-17T16:17:40.905Z,36.6
2018-07-17T16:18:30.983Z,36.4
2018-07-17T16:19:21.052Z,36.3
2018-07-17T16:20:11.243Z,36.1
2018-07-17T16:21:00.957Z,35.9
2018-07-17T16:21:50.694Z,35.7
2018-07-17T16:22:41.323Z,35.5
2018-07-17T16:23:31.364Z,35.3
2018-07-17T16:24:21.425Z,35.1
2018-07-17T16:25:11.497Z,34.9
2018-07-17T16:26:01.279Z,34.8
2018-07-17T16:26:51.619Z,34.6
2018-07-17T16:27:41.420Z,34.4
2018-07-17T16:28:31.208Z,34.2
2018-07-17T16:29:21.820Z,34.1
2018-07-17T16:30:11.899Z,33.9
2018-07-17T16:31:01.963Z,33.8
2018-07-17T16:31:52.062Z,33.6
2018-07-17T16:32:42.088Z,33.4
2018-07-17T16:33:32.156Z,33.2
2018-07-17T16:34:22.201Z,33.1
2018-07-17T16:35:12.004Z,32.9
2018-07-17T16:36:02.336Z,32.8
2018-07-17T16:36:52.305Z,32.6
2018-07-17T16:37:42.174Z,32.4
2018-07-17T16:38:32.523Z,32.3
2018-07-17T16:39:22.580Z,32.2
2018-07-17T16:40:12.668Z,32
2018-07-17T16:41:02.722Z,31.9
2018-07-17T16:41:52.772Z,31.8
2018-07-17T16:42:42.854Z,31.6
2018-07-17T16:43:32.936Z,31.5
2018-07-17T16:44:22.975Z,31.4
2018-07-17T16:45:13.025Z,31.3
2018-07-17T16:46:03.098Z,31.1
2018-07-17T16:46:53.157Z,31.1
2018-07-17T16:47:42.462Z,30.9
2018-07-17T16:48:33.026Z,30.8
2018-07-17T16:49:22.795Z,30.7
2018-07-17T16:50:13.413Z,30.6
2018-07-17T16:51:03.480Z,30.5
2018-07-17T16:51:53.259Z,30.4
2018-07-17T16:52:43.604Z,30.3
2018-07-17T16:53:33.396Z,30.2
2018-07-17T16:54:23.763Z,30.1
2018-07-17T16:55:13.793Z,30
2018-07-17T16:56:03.871Z,29.9
2018-07-17T16:56:53.649Z,29.8
2018-07-17T16:57:43.435Z,29.7
2018-07-17T16:58:33.791Z,29.6
2018-07-17T16:59:23.571Z,29.5
2018-07-17T17:00:14.199Z,29.4
2018-07-17T17:01:04.267Z,29.3
2018-07-17T17:01:54.330Z,29.2
2018-07-17T17:02:44.381Z,29.1
2018-07-17T17:03:34.435Z,29.1
2018-07-17T17:04:24.497Z,28.9
2018-07-17T17:05:14.306Z,28.9
2018-07-17T17:06:04.649Z,28.8
2018-07-17T17:06:54.697Z,28.7
2018-07-17T17:07:44.749Z,28.6
2018-07-17T17:08:34.830Z,28.5
2018-07-17T17:09:24.605Z,28.4
2018-07-17T17:10:14.952Z,28.3